OMAD/AZI METAR and TAF weather

Enter ICAO airport designator
Station Type Date Time Source
OMAD METAR 2021/04/17 03:00 UTC NOAA

OMAD 170300Z VRB02KT CAVOK 25/17 Q1012 NOSIG


Station Type Date Time Source
OMAD Decoded METAR 2021/04/17 03:00 UTC NOAA

Abu Dhabi Bateen Airport, United Arab Emirates (OMAD) 24-26N 054-28E 3M
Apr 16, 2021 - 11:00 PM EDT / 2021.04.17 0300 UTC
Wind: Variable at 2 MPH (2 KT):0
Visibility: greater than 7 mile(s):0
Temperature: 77 F (25 C)
Dew Point: 62 F (17 C)
Relative Humidity: 61%
Pressure (altimeter): 29.88 in. Hg (1012 hPa)
ob: OMAD 170300Z VRB02KT CAVOK 25/17 Q1012 NOSIG
cycle: 3

Station Type Date Time Source
OMAD TAF 2021/04/16 18:00 UTC NOAA

TAF OMAD 161700Z 1618/1800 30007KT 8000 NSC
BECMG 1621/1623 24006KT
BECMG 1705/1707 31012KT
BECMG 1715/1717 23005KT
BECMG 1720/1722 18005KT PROB30 1722/1800 4000 HZ

Example: see airport list